sensor_id;sensor_type;location;lat;lon;timestamp;pressure;altitude;pressure_sealevel;temperature;humidity
30873;BME280;17579;42.690;2.586;2023-07-31T00:01:24;97430.59;;;23.20;53.83
30873;BME280;17579;42.690;2.586;2023-07-31T00:04:12;97423.00;;;23.10;53.69
30873;BME280;17579;42.690;2.586;2023-07-31T00:06:38;97423.16;;;23.15;54.26
30873;BME280;17579;42.690;2.586;2023-07-31T00:09:03;97423.38;;;23.14;54.01
30873;BME280;17579;42.690;2.586;2023-07-31T00:11:29;97421.94;;;23.11;54.38
30873;BME280;17579;42.690;2.586;2023-07-31T00:14:01;97421.94;;;23.11;53.94
30873;BME280;17579;42.690;2.586;2023-07-31T00:16:29;97417.59;;;23.10;54.04
30873;BME280;17579;42.690;2.586;2023-07-31T00:18:55;97426.31;;;23.12;54.12
30873;BME280;17579;42.690;2.586;2023-07-31T00:21:23;97429.41;;;23.09;54.25
30873;BME280;17579;42.690;2.586;2023-07-31T00:23:49;97422.59;;;23.07;53.87
30873;BME280;17579;42.690;2.586;2023-07-31T00:26:15;97429.47;;;23.02;54.48
30873;BME280;17579;42.690;2.586;2023-07-31T00:28:43;97424.53;;;22.99;54.30
30873;BME280;17579;42.690;2.586;2023-07-31T00:31:09;97421.81;;;22.99;54.72
30873;BME280;17579;42.690;2.586;2023-07-31T00:33:35;97418.53;;;22.97;54.24
30873;BME280;17579;42.690;2.586;2023-07-31T00:36:04;97420.38;;;22.97;54.43
30873;BME280;17579;42.690;2.586;2023-07-31T00:41:21;97416.44;;;22.99;54.20
30873;BME280;17579;42.690;2.586;2023-07-31T00:43:47;97413.97;;;22.98;54.06
30873;BME280;17579;42.690;2.586;2023-07-31T00:46:20;97418.53;;;22.97;54.03
30873;BME280;17579;42.690;2.586;2023-07-31T00:48:49;97408.38;;;22.93;54.30
30873;BME280;17579;42.690;2.586;2023-07-31T00:51:18;97412.38;;;22.90;54.25
30873;BME280;17579;42.690;2.586;2023-07-31T00:54:12;97403.88;;;22.87;53.94
30873;BME280;17579;42.690;2.586;2023-07-31T00:56:40;97408.91;;;22.83;54.16
30873;BME280;17579;42.690;2.586;2023-07-31T00:59:06;97416.38;;;22.81;53.96
30873;BME280;17579;42.690;2.586;2023-07-31T01:01:57;97409.00;;;22.70;53.85
30873;BME280;17579;42.690;2.586;2023-07-31T01:04:23;97407.28;;;22.75;53.50
30873;BME280;17579;42.690;2.586;2023-07-31T01:11:57;97406.38;;;22.63;53.60
30873;BME280;17579;42.690;2.586;2023-07-31T01:14:31;97412.13;;;22.66;53.08
30873;BME280;17579;42.690;2.586;2023-07-31T01:17:00;97412.78;;;22.62;53.72
30873;BME280;17579;42.690;2.586;2023-07-31T01:19:35;97404.09;;;22.60;53.02
30873;BME280;17579;42.690;2.586;2023-07-31T01:25:27;97398.75;;;22.53;53.48
30873;BME280;17579;42.690;2.586;2023-07-31T01:28:02;97393.34;;;22.53;53.25
30873;BME280;17579;42.690;2.586;2023-07-31T01:30:33;97386.53;;;22.51;53.44
30873;BME280;17579;42.690;2.586;2023-07-31T01:33:05;97391.31;;;22.48;53.13
30873;BME280;17579;42.690;2.586;2023-07-31T01:35:35;97380.53;;;22.48;52.97
30873;BME280;17579;42.690;2.586;2023-07-31T01:38:01;97367.06;;;22.48;52.86
30873;BME280;17579;42.690;2.586;2023-07-31T01:40:50;97375.41;;;22.40;53.35
30873;BME280;17579;42.690;2.586;2023-07-31T01:43:21;97379.69;;;22.48;53.18
30873;BME280;17579;42.690;2.586;2023-07-31T01:45:48;97375.56;;;22.45;53.13
30873;BME280;17579;42.690;2.586;2023-07-31T01:48:20;97372.50;;;22.42;53.37
30873;BME280;17579;42.690;2.586;2023-07-31T01:50:45;97384.09;;;22.42;53.42
30873;BME280;17579;42.690;2.586;2023-07-31T01:53:13;97374.97;;;22.43;53.06
30873;BME280;17579;42.690;2.586;2023-07-31T01:55:44;97373.31;;;22.42;53.25
30873;BME280;17579;42.690;2.586;2023-07-31T01:58:09;97371.91;;;22.40;53.18
30873;BME280;17579;42.690;2.586;2023-07-31T02:00:38;97373.16;;;22.37;53.43
30873;BME280;17579;42.690;2.586;2023-07-31T02:03:03;97371.06;;;22.39;53.01
30873;BME280;17579;42.690;2.586;2023-07-31T02:05:29;97371.06;;;22.39;53.43
30873;BME280;17579;42.690;2.586;2023-07-31T02:07:54;97371.28;;;22.38;53.55
30873;BME280;17579;42.690;2.586;2023-07-31T02:10:20;97370.91;;;22.34;53.26
30873;BME280;17579;42.690;2.586;2023-07-31T02:12:49;97380.03;;;22.33;53.21
30873;BME280;17579;42.690;2.586;2023-07-31T02:15:15;97370.06;;;22.34;53.42
30873;BME280;17579;42.690;2.586;2023-07-31T02:17:40;97369.25;;;22.33;53.43
30873;BME280;17579;42.690;2.586;2023-07-31T02:20:06;97363.84;;;22.33;53.52
30873;BME280;17579;42.690;2.586;2023-07-31T02:22:32;97357.66;;;22.33;53.18
30873;BME280;17579;42.690;2.586;2023-07-31T02:25:09;97360.94;;;22.28;53.26
30873;BME280;17579;42.690;2.586;2023-07-31T02:27:43;97361.56;;;22.30;53.29
30873;BME280;17579;42.690;2.586;2023-07-31T02:30:09;97359.47;;;22.32;53.32
30873;BME280;17579;42.690;2.586;2023-07-31T02:32:38;97363.41;;;22.29;53.18
30873;BME280;17579;42.690;2.586;2023-07-31T02:35:10;97370.28;;;22.25;53.36
30873;BME280;17579;42.690;2.586;2023-07-31T02:37:46;97373.59;;;22.27;53.63
30873;BME280;17579;42.690;2.586;2023-07-31T02:40:15;97371.13;;;22.26;53.41
30873;BME280;17579;42.690;2.586;2023-07-31T02:42:43;97357.88;;;22.24;53.79
30873;BME280;17579;42.690;2.586;2023-07-31T02:45:14;97360.13;;;22.27;53.54
30873;BME280;17579;42.690;2.586;2023-07-31T02:47:40;97368.44;;;22.26;53.35
30873;BME280;17579;42.690;2.586;2023-07-31T02:50:06;97364.47;;;22.28;53.71
30873;BME280;17579;42.690;2.586;2023-07-31T02:52:41;97355.78;;;22.26;53.53
30873;BME280;17579;42.690;2.586;2023-07-31T02:55:24;97367.00;;;22.23;53.46
30873;BME280;17579;42.690;2.586;2023-07-31T02:57:50;97363.25;;;22.24;53.48
30873;BME280;17579;42.690;2.586;2023-07-31T03:00:17;97366.19;;;22.23;53.66
30873;BME280;17579;42.690;2.586;2023-07-31T03:02:43;97366.63;;;22.20;53.80
30873;BME280;17579;42.690;2.586;2023-07-31T03:05:31;97364.38;;;22.10;54.13
30873;BME280;17579;42.690;2.586;2023-07-31T03:08:20;97354.66;;;22.09;54.13
30873;BME280;17579;42.690;2.586;2023-07-31T03:10:51;97354.63;;;22.15;53.95
30873;BME280;17579;42.690;2.586;2023-07-31T03:13:40;97352.38;;;22.06;53.95
30873;BME280;17579;42.690;2.586;2023-07-31T03:16:44;97348.44;;;22.08;54.05
30873;BME280;17579;42.690;2.586;2023-07-31T03:19:12;97348.03;;;22.05;54.40
30873;BME280;17579;42.690;2.586;2023-07-31T03:21:38;97346.00;;;22.00;54.34
30873;BME280;17579;42.690;2.586;2023-07-31T03:24:04;97347.25;;;21.97;54.68
30873;BME280;17579;42.690;2.586;2023-07-31T03:26:31;97340.63;;;21.93;55.01
30873;BME280;17579;42.690;2.586;2023-07-31T03:29:01;97336.94;;;21.88;55.26
30873;BME280;17579;42.690;2.586;2023-07-31T03:31:26;97340.06;;;21.85;55.18
30873;BME280;17579;42.690;2.586;2023-07-31T03:33:52;97339.47;;;21.83;55.47
30873;BME280;17579;42.690;2.586;2023-07-31T03:36:18;97330.53;;;21.82;55.36
30873;BME280;17579;42.690;2.586;2023-07-31T03:38:46;97332.03;;;21.78;55.80
30873;BME280;17579;42.690;2.586;2023-07-31T03:41:32;97332.66;;;21.73;55.37
30873;BME280;17579;42.690;2.586;2023-07-31T03:43:58;97334.09;;;21.76;55.46
30873;BME280;17579;42.690;2.586;2023-07-31T03:46:26;97335.97;;;21.75;55.73
30873;BME280;17579;42.690;2.586;2023-07-31T03:48:54;97326.66;;;21.78;55.72
30873;BME280;17579;42.690;2.586;2023-07-31T03:51:40;97334.75;;;21.71;55.81
30873;BME280;17579;42.690;2.586;2023-07-31T03:54:07;97333.06;;;21.77;55.69
30873;BME280;17579;42.690;2.586;2023-07-31T03:56:35;97341.38;;;21.75;55.36
30873;BME280;17579;42.690;2.586;2023-07-31T03:59:06;97329.97;;;21.73;55.70
30873;BME280;17579;42.690;2.586;2023-07-31T04:01:32;97324.81;;;21.72;55.74
30873;BME280;17579;42.690;2.586;2023-07-31T04:03:58;97329.16;;;21.73;55.78
30873;BME280;17579;42.690;2.586;2023-07-31T04:06:23;97325.44;;;21.74;55.68
30873;BME280;17579;42.690;2.586;2023-07-31T04:08:54;97322.31;;;21.70;55.81
30873;BME280;17579;42.690;2.586;2023-07-31T04:11:22;97318.59;;;21.71;56.22
30873;BME280;17579;42.690;2.586;2023-07-31T04:13:53;97318.59;;;21.71;55.87
30873;BME280;17579;42.690;2.586;2023-07-31T04:16:21;97320.47;;;21.71;56.13
30873;BME280;17579;42.690;2.586;2023-07-31T04:18:46;97319.63;;;21.70;56.43
30873;BME280;17579;42.690;2.586;2023-07-31T04:21:19;97316.56;;;21.67;56.10
30873;BME280;17579;42.690;2.586;2023-07-31T04:23:45;97316.97;;;21.63;56.35
30873;BME280;17579;42.690;2.586;2023-07-31T04:26:11;97319.66;;;21.63;56.32
30873;BME280;17579;42.690;2.586;2023-07-31T04:28:36;97325.25;;;21.62;56.41
30873;BME280;17579;42.690;2.586;2023-07-31T04:31:02;97319.28;;;21.60;56.65
30873;BME280;17579;42.690;2.586;2023-07-31T04:33:37;97311.63;;;21.57;56.26
30873;BME280;17579;42.690;2.586;2023-07-31T04:36:10;97318.06;;;21.56;56.45
30873;BME280;17579;42.690;2.586;2023-07-31T04:38:38;97309.78;;;21.51;56.74
30873;BME280;17579;42.690;2.586;2023-07-31T04:41:06;97318.88;;;21.50;57.18
30873;BME280;17579;42.690;2.586;2023-07-31T04:43:42;97317.22;;;21.49;57.12
30873;BME280;17579;42.690;2.586;2023-07-31T04:46:10;97317.06;;;21.43;57.31
30873;BME280;17579;42.690;2.586;2023-07-31T04:48:36;97321.19;;;21.39;57.54
30873;BME280;17579;42.690;2.586;2023-07-31T04:51:01;97328.22;;;21.40;57.60
30873;BME280;17579;42.690;2.586;2023-07-31T04:53:27;97330.31;;;21.38;57.63
30873;BME280;17579;42.690;2.586;2023-07-31T04:55:53;97327.63;;;21.38;57.39
30873;BME280;17579;42.690;2.586;2023-07-31T04:58:39;97322.66;;;21.35;57.30
30873;BME280;17579;42.690;2.586;2023-07-31T05:01:07;97331.31;;;21.44;57.61
30873;BME280;17579;42.690;2.586;2023-07-31T05:03:32;97337.13;;;21.41;57.41
30873;BME280;17579;42.690;2.586;2023-07-31T05:05:58;97338.97;;;21.40;57.43
30873;BME280;17579;42.690;2.586;2023-07-31T05:08:24;97329.88;;;21.41;57.99
30873;BME280;17579;42.690;2.586;2023-07-31T05:10:52;97331.53;;;21.42;57.60
30873;BME280;17579;42.690;2.586;2023-07-31T05:13:20;97322.44;;;21.43;57.75
30873;BME280;17579;42.690;2.586;2023-07-31T05:15:51;97331.50;;;21.49;57.72
30873;BME280;17579;42.690;2.586;2023-07-31T05:18:19;97341.44;;;21.55;57.30
30873;BME280;17579;42.690;2.586;2023-07-31T05:20:45;97332.72;;;21.60;57.18
30873;BME280;17579;42.690;2.586;2023-07-31T05:23:19;97335.22;;;21.61;57.54
30873;BME280;17579;42.690;2.586;2023-07-31T05:25:45;97341.59;;;21.74;57.13
30873;BME280;17579;42.690;2.586;2023-07-31T05:28:26;97349.16;;;21.84;56.89
30873;BME280;17579;42.690;2.586;2023-07-31T05:31:34;97356.19;;;21.91;56.80
30873;BME280;17579;42.690;2.586;2023-07-31T05:33:55;97351.97;;;22.02;56.59
30873;BME280;17579;42.690;2.586;2023-07-31T05:36:21;97366.06;;;22.04;56.45
30873;BME280;17579;42.690;2.586;2023-07-31T05:38:47;97349.47;;;22.07;56.14
30873;BME280;17579;42.690;2.586;2023-07-31T05:41:17;97362.63;;;22.22;56.38
30873;BME280;17579;42.690;2.586;2023-07-31T05:43:54;97353.84;;;22.40;55.83
30873;BME280;17579;42.690;2.586;2023-07-31T05:46:22;97357.22;;;22.61;55.27
30873;BME280;17579;42.690;2.586;2023-07-31T05:48:50;97361.84;;;22.79;54.85
30873;BME280;17579;42.690;2.586;2023-07-31T05:51:15;97364.06;;;22.89;54.92
30873;BME280;17579;42.690;2.586;2023-07-31T05:53:41;97366.75;;;23.07;54.31
30873;BME280;17579;42.690;2.586;2023-07-31T05:56:24;97360.88;;;23.17;54.16
30873;BME280;17579;42.690;2.586;2023-07-31T05:59:12;97365.63;;;23.40;53.27
30873;BME280;17579;42.690;2.586;2023-07-31T06:01:44;97361.72;;;23.55;53.11
30873;BME280;17579;42.690;2.586;2023-07-31T06:04:53;97362.91;;;23.59;52.74
30873;BME280;17579;42.690;2.586;2023-07-31T06:07:17;97366.28;;;23.73;52.17
30873;BME280;17579;42.690;2.586;2023-07-31T06:10:05;97359.91;;;23.85;52.30
30873;BME280;17579;42.690;2.586;2023-07-31T06:12:32;97358.97;;;24.10;51.37
30873;BME280;17579;42.690;2.586;2023-07-31T06:14:58;97373.59;;;24.21;51.12
30873;BME280;17579;42.690;2.586;2023-07-31T06:17:24;97371.19;;;24.43;50.57
30873;BME280;17579;42.690;2.586;2023-07-31T06:19:57;97374.50;;;24.57;49.86
30873;BME280;17579;42.690;2.586;2023-07-31T06:22:34;97374.56;;;24.69;49.46
30873;BME280;17579;42.690;2.586;2023-07-31T06:25:20;97370.81;;;24.82;48.75
30873;BME280;17579;42.690;2.586;2023-07-31T06:27:51;97377.50;;;24.91;48.50
30873;BME280;17579;42.690;2.586;2023-07-31T06:30:26;97376.94;;;25.01;47.70
30873;BME280;17579;42.690;2.586;2023-07-31T06:32:52;97380.56;;;25.06;47.82
30873;BME280;17579;42.690;2.586;2023-07-31T06:35:17;97381.19;;;25.20;47.37
30873;BME280;17579;42.690;2.586;2023-07-31T06:37:51;97378.81;;;25.24;47.76
30873;BME280;17579;42.690;2.586;2023-07-31T06:40:27;97375.75;;;25.44;47.12
30873;BME280;17579;42.690;2.586;2023-07-31T06:43:05;97376.31;;;25.58;46.18
30873;BME280;17579;42.690;2.586;2023-07-31T06:45:35;97373.38;;;25.59;45.67
30873;BME280;17579;42.690;2.586;2023-07-31T06:48:06;97375.13;;;25.66;45.71
30873;BME280;17579;42.690;2.586;2023-07-31T06:50:34;97379.38;;;25.73;45.51
30873;BME280;17579;42.690;2.586;2023-07-31T06:53:00;97379.19;;;25.80;45.16
30873;BME280;17579;42.690;2.586;2023-07-31T06:55:28;97374.81;;;25.91;44.84
30873;BME280;17579;42.690;2.586;2023-07-31T06:57:58;97364.56;;;26.05;45.11
30873;BME280;17579;42.690;2.586;2023-07-31T07:00:24;97371.91;;;26.21;44.42
30873;BME280;17579;42.690;2.586;2023-07-31T07:02:58;97379.03;;;26.39;43.88
30873;BME280;17579;42.690;2.586;2023-07-31T07:05:27;97374.94;;;26.54;43.78
30873;BME280;17579;42.690;2.586;2023-07-31T07:07:53;97372.81;;;26.73;43.31
30873;BME280;17579;42.690;2.586;2023-07-31T07:13:04;97365.91;;;26.82;42.90
30873;BME280;17579;42.690;2.586;2023-07-31T07:15:30;97365.34;;;26.97;43.24
30873;BME280;17579;42.690;2.586;2023-07-31T07:17:59;97368.97;;;27.03;42.85
30873;BME280;17579;42.690;2.586;2023-07-31T07:20:29;97358.00;;;27.14;42.40
30873;BME280;17579;42.690;2.586;2023-07-31T07:22:55;97366.09;;;27.31;42.30
30873;BME280;17579;42.690;2.586;2023-07-31T07:25:23;97363.13;;;27.50;41.58
30873;BME280;17579;42.690;2.586;2023-07-31T07:27:49;97361.09;;;27.62;41.32
30873;BME280;17579;42.690;2.586;2023-07-31T07:30:18;97361.22;;;27.73;41.24
30873;BME280;17579;42.690;2.586;2023-07-31T07:32:56;97365.06;;;27.77;41.44
30873;BME280;17579;42.690;2.586;2023-07-31T07:35:30;97359.72;;;28.04;41.23
30873;BME280;17579;42.690;2.586;2023-07-31T07:38:04;97353.41;;;28.26;41.36
30873;BME280;17579;42.690;2.586;2023-07-31T07:40:32;97349.19;;;28.40;40.40
30873;BME280;17579;42.690;2.586;2023-07-31T07:43:05;97347.13;;;28.52;40.09
30873;BME280;17579;42.690;2.586;2023-07-31T07:45:44;97347.31;;;28.41;39.30
30873;BME280;17579;42.690;2.586;2023-07-31T07:48:23;97344.44;;;28.25;40.67
30873;BME280;17579;42.690;2.586;2023-07-31T07:50:52;97344.72;;;28.56;39.80
30873;BME280;17579;42.690;2.586;2023-07-31T07:53:20;97341.59;;;28.69;39.04
30873;BME280;17579;42.690;2.586;2023-07-31T07:55:49;97339.16;;;28.73;38.94
30873;BME280;17579;42.690;2.586;2023-07-31T07:58:18;97335.00;;;29.03;38.93
30873;BME280;17579;42.690;2.586;2023-07-31T08:00:50;97336.84;;;29.30;38.96
30873;BME280;17579;42.690;2.586;2023-07-31T08:03:39;97330.69;;;29.55;39.47
30873;BME280;17579;42.690;2.586;2023-07-31T08:06:10;97329.09;;;29.69;38.18
30873;BME280;17579;42.690;2.586;2023-07-31T08:08:57;97324.50;;;29.70;37.75
30873;BME280;17579;42.690;2.586;2023-07-31T08:11:36;97329.19;;;29.85;37.52
30873;BME280;17579;42.690;2.586;2023-07-31T08:14:27;97318.28;;;29.85;37.99
30873;BME280;17579;42.690;2.586;2023-07-31T08:17:05;97319.16;;;30.16;37.35
30873;BME280;17579;42.690;2.586;2023-07-31T08:19:38;97319.72;;;30.34;36.26
30873;BME280;17579;42.690;2.586;2023-07-31T08:22:33;97332.78;;;30.01;37.33
30873;BME280;17579;42.690;2.586;2023-07-31T08:25:24;97321.34;;;30.19;36.83
30873;BME280;17579;42.690;2.586;2023-07-31T08:28:13;97328.19;;;30.22;36.16
30873;BME280;17579;42.690;2.586;2023-07-31T08:30:49;97325.97;;;30.14;36.75
30873;BME280;17579;42.690;2.586;2023-07-31T08:33:18;97326.56;;;30.26;36.43
30873;BME280;17579;42.690;2.586;2023-07-31T08:35:47;97330.41;;;30.46;35.94
30873;BME280;17579;42.690;2.586;2023-07-31T08:38:15;97320.06;;;30.58;35.86
30873;BME280;17579;42.690;2.586;2023-07-31T08:40:56;97330.41;;;30.51;36.03
30873;BME280;17579;42.690;2.586;2023-07-31T08:43:25;97329.31;;;30.47;36.03
30873;BME280;17579;42.690;2.586;2023-07-31T08:46:13;97318.13;;;30.48;35.66
30873;BME280;17579;42.690;2.586;2023-07-31T08:49:08;97313.50;;;30.54;36.06
30873;BME280;17579;42.690;2.586;2023-07-31T08:51:46;97311.84;;;30.53;36.27
30873;BME280;17579;42.690;2.586;2023-07-31T08:54:29;97317.31;;;30.53;36.28
30873;BME280;17579;42.690;2.586;2023-07-31T08:56:59;97310.22;;;30.52;36.37
30873;BME280;17579;42.690;2.586;2023-07-31T08:59:32;97318.09;;;30.33;36.03
30873;BME280;17579;42.690;2.586;2023-07-31T09:07:57;97305.25;;;30.08;36.42
30873;BME280;17579;42.690;2.586;2023-07-31T09:08:29;97300.06;;;29.96;37.56
30873;BME280;17579;42.690;2.586;2023-07-31T09:11:21;97303.88;;;29.95;36.65
30873;BME280;17579;42.690;2.586;2023-07-31T09:13:49;97297.84;;;29.87;36.80
30873;BME280;17579;42.690;2.586;2023-07-31T09:16:15;97292.34;;;29.82;36.95
30873;BME280;17579;42.690;2.586;2023-07-31T09:18:52;97294.78;;;29.79;36.57
30873;BME280;17579;42.690;2.586;2023-07-31T09:21:22;97299.38;;;29.63;36.55
30873;BME280;17579;42.690;2.586;2023-07-31T09:23:54;97290.94;;;29.64;37.17
30873;BME280;17579;42.690;2.586;2023-07-31T09:29:04;97285.75;;;29.68;36.54
30873;BME280;17579;42.690;2.586;2023-07-31T09:37:15;97282.84;;;29.21;37.66
30873;BME280;17579;42.690;2.586;2023-07-31T09:39:46;97295.34;;;29.17;37.89
30873;BME280;17579;42.690;2.586;2023-07-31T09:42:41;97290.22;;;29.26;37.80
30873;BME280;17579;42.690;2.586;2023-07-31T09:45:12;97293.84;;;29.37;37.89
30873;BME280;17579;42.690;2.586;2023-07-31T09:47:58;97283.44;;;29.29;37.55
30873;BME280;17579;42.690;2.586;2023-07-31T09:50:37;97281.56;;;29.34;37.41
30873;BME280;17579;42.690;2.586;2023-07-31T09:53:10;97277.50;;;29.37;37.55
30873;BME280;17579;42.690;2.586;2023-07-31T09:55:51;97282.09;;;29.31;37.24
30873;BME280;17579;42.690;2.586;2023-07-31T09:58:25;97281.56;;;29.34;36.90
30873;BME280;17579;42.690;2.586;2023-07-31T10:00:53;97272.56;;;29.34;36.46
30873;BME280;17579;42.690;2.586;2023-07-31T10:06:27;97276.63;;;29.26;36.77
30873;BME280;17579;42.690;2.586;2023-07-31T10:09:07;97274.94;;;29.20;36.99
30873;BME280;17579;42.690;2.586;2023-07-31T10:12:02;97272.50;;;29.24;37.53
30873;BME280;17579;42.690;2.586;2023-07-31T10:14:34;97268.78;;;29.40;37.12
30873;BME280;17579;42.690;2.586;2023-07-31T10:17:08;97264.69;;;29.37;36.67
30873;BME280;17579;42.690;2.586;2023-07-31T10:19:54;97277.72;;;29.30;36.73
30873;BME280;17579;42.690;2.586;2023-07-31T10:22:51;97265.75;;;29.31;36.28
30873;BME280;17579;42.690;2.586;2023-07-31T10:25:37;97267.66;;;29.31;36.75
30873;BME280;17579;42.690;2.586;2023-07-31T10:28:04;97259.00;;;29.44;35.52
30873;BME280;17579;42.690;2.586;2023-07-31T10:30:55;97262.25;;;29.41;35.74
30873;BME280;17579;42.690;2.586;2023-07-31T10:33:30;97260.63;;;29.50;35.32
30873;BME280;17579;42.690;2.586;2023-07-31T10:38:43;97242.69;;;29.60;34.60
30873;BME280;17579;42.690;2.586;2023-07-31T10:41:15;97247.59;;;29.68;33.66
30873;BME280;17579;42.690;2.586;2023-07-31T10:43:41;97256.34;;;29.70;33.97
30873;BME280;17579;42.690;2.586;2023-07-31T10:46:14;97259.91;;;29.76;34.49
30873;BME280;17579;42.690;2.586;2023-07-31T10:49:00;97251.44;;;29.82;33.64
30873;BME280;17579;42.690;2.586;2023-07-31T10:51:40;97244.94;;;29.83;33.80
30873;BME280;17579;42.690;2.586;2023-07-31T10:54:14;97246.25;;;29.81;33.78
30873;BME280;17579;42.690;2.586;2023-07-31T10:56:55;97241.91;;;29.75;34.04
30873;BME280;17579;42.690;2.586;2023-07-31T10:59:34;97253.66;;;29.85;33.93
30873;BME280;17579;42.690;2.586;2023-07-31T11:02:03;97242.25;;;29.88;34.09
30873;BME280;17579;42.690;2.586;2023-07-31T11:04:32;97232.94;;;29.89;34.42
30873;BME280;17579;42.690;2.586;2023-07-31T11:07:17;97225.59;;;29.90;34.15
30873;BME280;17579;42.690;2.586;2023-07-31T11:09:47;97232.69;;;29.86;34.74
30873;BME280;17579;42.690;2.586;2023-07-31T11:12:36;97225.59;;;29.95;35.04
30873;BME280;17579;42.690;2.586;2023-07-31T11:15:28;97226.41;;;30.01;34.46
30873;BME280;17579;42.690;2.586;2023-07-31T11:18:03;97223.44;;;30.18;33.73
30873;BME280;17579;42.690;2.586;2023-07-31T11:20:40;97223.97;;;30.25;33.98
30873;BME280;17579;42.690;2.586;2023-07-31T11:23:08;97222.59;;;30.38;34.02
30873;BME280;17579;42.690;2.586;2023-07-31T11:25:37;97219.06;;;30.43;33.83
30873;BME280;17579;42.690;2.586;2023-07-31T11:31:00;97212.75;;;30.68;33.82
30873;BME280;17579;42.690;2.586;2023-07-31T11:33:26;97213.00;;;30.71;33.47
30873;BME280;17579;42.690;2.586;2023-07-31T11:38:41;97207.56;;;30.82;33.66
30873;BME280;17579;42.690;2.586;2023-07-31T11:41:15;97214.38;;;30.79;33.33
30873;BME280;17579;42.690;2.586;2023-07-31T11:43:46;97205.91;;;30.75;33.08
30873;BME280;17579;42.690;2.586;2023-07-31T11:46:40;97200.75;;;30.69;33.12
30873;BME280;17579;42.690;2.586;2023-07-31T11:49:18;97207.56;;;30.71;32.91
30873;BME280;17579;42.690;2.586;2023-07-31T11:51:51;97200.44;;;30.75;33.09
30873;BME280;17579;42.690;2.586;2023-07-31T11:54:22;97197.97;;;30.84;33.22
30873;BME280;17579;42.690;2.586;2023-07-31T11:57:11;97197.69;;;30.91;33.72
30873;BME280;17579;42.690;2.586;2023-07-31T11:59:39;97189.19;;;31.08;33.68
30873;BME280;17579;42.690;2.586;2023-07-31T12:02:08;97186.97;;;31.15;33.92
30873;BME280;17579;42.690;2.586;2023-07-31T12:04:41;97185.00;;;31.26;33.23
30873;BME280;17579;42.690;2.586;2023-07-31T12:07:07;97177.06;;;31.24;32.94
30873;BME280;17579;42.690;2.586;2023-07-31T12:09:55;97181.19;;;31.22;33.54
30873;BME280;17579;42.690;2.586;2023-07-31T12:12:25;97171.03;;;31.33;33.54
30873;BME280;17579;42.690;2.586;2023-07-31T12:14:55;97169.88;;;31.44;33.66
30873;BME280;17579;42.690;2.586;2023-07-31T12:17:24;97174.47;;;31.49;32.89
30873;BME280;17579;42.690;2.586;2023-07-31T12:19:54;97165.66;;;31.62;32.97
30873;BME280;17579;42.690;2.586;2023-07-31T12:22:22;97166.72;;;31.71;32.31
30873;BME280;17579;42.690;2.586;2023-07-31T12:24:57;97152.94;;;31.87;33.03
30873;BME280;17579;42.690;2.586;2023-07-31T12:27:23;97153.56;;;32.13;31.60
30873;BME280;17579;42.690;2.586;2023-07-31T12:29:56;97146.44;;;32.41;31.26
30873;BME280;17579;42.690;2.586;2023-07-31T12:32:25;97142.50;;;32.53;31.61
30873;BME280;17579;42.690;2.586;2023-07-31T12:35:11;97140.06;;;32.75;31.62
30873;BME280;17579;42.690;2.586;2023-07-31T12:37:52;97137.84;;;33.02;30.92
30873;BME280;17579;42.690;2.586;2023-07-31T12:40:20;97124.97;;;33.21;29.82
30873;BME280;17579;42.690;2.586;2023-07-31T12:42:47;97127.06;;;33.29;29.76
30873;BME280;17579;42.690;2.586;2023-07-31T12:45:21;97127.75;;;33.59;30.23
30873;BME280;17579;42.690;2.586;2023-07-31T12:47:48;97121.44;;;34.11;29.42
30873;BME280;17579;42.690;2.586;2023-07-31T12:50:21;97119.47;;;34.44;28.61
30873;BME280;17579;42.690;2.586;2023-07-31T12:52:49;97111.75;;;34.88;28.33
30873;BME280;17579;42.690;2.586;2023-07-31T12:55:15;97116.69;;;35.14;27.99
30873;BME280;17579;42.690;2.586;2023-07-31T12:57:46;97109.28;;;35.14;27.48
30873;BME280;17579;42.690;2.586;2023-07-31T13:00:14;97110.38;;;35.27;27.83
30873;BME280;17579;42.690;2.586;2023-07-31T13:02:46;97103.16;;;35.54;27.85
30873;BME280;17579;42.690;2.586;2023-07-31T13:05:17;97110.25;;;35.69;27.14
30873;BME280;17579;42.690;2.586;2023-07-31T13:08:05;97105.72;;;35.73;27.80
30873;BME280;17579;42.690;2.586;2023-07-31T13:10:31;97099.59;;;35.99;27.04
30873;BME280;17579;42.690;2.586;2023-07-31T13:12:57;97100.16;;;36.10;26.95
30873;BME280;17579;42.690;2.586;2023-07-31T13:16:06;97089.28;;;36.04;27.38
30873;BME280;17579;42.690;2.586;2023-07-31T13:18:44;97094.34;;;36.11;26.77
30873;BME280;17579;42.690;2.586;2023-07-31T13:21:12;97083.56;;;36.23;26.20
30873;BME280;17579;42.690;2.586;2023-07-31T13:23:48;97088.03;;;36.11;26.60
30873;BME280;17579;42.690;2.586;2023-07-31T13:26:19;97086.88;;;36.12;26.18
30873;BME280;17579;42.690;2.586;2023-07-31T13:28:45;97083.00;;;36.13;26.62
30873;BME280;17579;42.690;2.586;2023-07-31T13:31:13;97071.88;;;36.18;26.28
30873;BME280;17579;42.690;2.586;2023-07-31T13:33:42;97073.66;;;36.22;26.05
30873;BME280;17579;42.690;2.586;2023-07-31T13:38:59;97072.69;;;36.18;25.56
30873;BME280;17579;42.690;2.586;2023-07-31T13:41:28;97062.75;;;36.08;25.49
30873;BME280;17579;42.690;2.586;2023-07-31T13:43:54;97067.81;;;36.15;25.81
30873;BME280;17579;42.690;2.586;2023-07-31T13:46:21;97065.72;;;36.21;25.90
30873;BME280;17579;42.690;2.586;2023-07-31T13:48:47;97057.25;;;36.08;25.69
30873;BME280;17579;42.690;2.586;2023-07-31T13:51:13;97058.63;;;35.97;25.87
30873;BME280;17579;42.690;2.586;2023-07-31T13:53:38;97047.31;;;35.99;25.99
30873;BME280;17579;42.690;2.586;2023-07-31T13:56:09;97057.41;;;36.03;25.77
30873;BME280;17579;42.690;2.586;2023-07-31T13:58:35;97042.00;;;36.02;25.99
30873;BME280;17579;42.690;2.586;2023-07-31T14:01:00;97042.91;;;35.89;25.70
30873;BME280;17579;42.690;2.586;2023-07-31T14:03:28;97055.16;;;35.83;25.89
30873;BME280;17579;42.690;2.586;2023-07-31T14:05:55;97038.84;;;35.86;26.16
30873;BME280;17579;42.690;2.586;2023-07-31T14:08:21;97044.53;;;35.90;25.95